Richmond, CA

7:58 AM PDT on May 26, 2015 (GMT -0700)
El Cerrito / Richmond Heights | | Change Station
CLOSE
Current Station
Personal Weather Station
Location: El Cerrito, CA
Elevation: 300 ft
Nearby Weather Stations

Elev 300 ft 37.94 °N, 122.31 °W | Updated 19 days ago

Cloudy
Cloudy
55 °F
Feels Like 55 °F
N
9
Wind Variable Wind from WSW
Gusts mph

Today
High -- | Low -- °F
--% Chance of Precip.
Yesterday
High -- | Low -- °F
Precip. -- in
5:51 AM 8:21 PM
First Quarter, 58% visible
Pressure 30.01 in
Visibility 10.0 miles
Clouds Few 900 ft
Overcast 2600 ft
Dew Point 49 °F
Humidity 81%
Rainfall in
Snow Depth Not available.
UV 1 out of 12
Pollen 6.00 out of 12
Air Quality Not available.
Flu Activity Sporadic
METAR KOAK 261453Z 25010KT 10SM FEW009 OVC026 13/09 A3001 RMK AO2 SLP163 T01280094 53010

More Conditions Fewer Conditions

Pressure 30.01 in
Visibility 10.0 miles
Clouds Few 900 ft
Overcast 2600 ft
Dew Point 49 °F
Humidity 81%
Rainfall in
Snow Depth Not available.
UV 1 out of 12
Pollen 6.00 out of 12
Air Quality Not available.
Flu Activity Sporadic
METAR KOAK 261453Z 25010KT 10SM FEW009 OVC026 13/09 A3001 RMK AO2 SLP163 T01280094 53010

More Conditions Fewer Conditions

10-Day Weather Forecast

Almanac

Astronomy

May. 26, 2015 Rise Set
Actual Time
Civil Twilight
Nautical Twilight
Astronomical Twilight
Moon
Length of Visible Light
Length of Day
Tomorrow will be .
, % of the Moon is Illuminated

Today's Extremes

State Highs State Lows

Community

WunderPhotos

Upload Photos

1,824,344 photos uploaded!

WunderBlogs® & News

Nearby

Air Quality

  Air Quality AQ Index Pollutant
Not available.

Snow Depth

Station Depth Elevation

Earthquake Activity

City Distance Mag. Time & Date
Minimum magnitude displayed is 2.5.

Coastal Water Temperatures

Place Temperature

Stations

Nearby Weather Stations

Station Location Temp. Windchill Dew Point Humidity Wind Precip. Elev Updated Type